Time;durP1;ratioP1;P1;durP2;ratioP2;P2;SDS_P1;SDS_P2;PMS_P1;PMS_P2;Temp;Humidity;BMP_temperature;BMP_pressure;BME280_temperature;BME280_humidity;BME280_pressure;Samples;Min_cycle;Max_cycle;Signal;HPM_P1;HPM_P2
2022/09/16 00:01:35;;;;;;;10.57;2.13;;;12.70;99.90;;;12.02;100.00;101231.94;5248627;22;20003;-74
2022/09/16 00:03:37;;;;;;;7.05;1.75;;;12.70;99.90;;;12.02;100.00;101240.72;5250131;22;20007;-73
2022/09/16 00:05:43;;;;;;;4.15;1.65;;;12.70;99.90;;;11.97;100.00;101232.41;5250055;22;20002;-74
2022/09/16 00:07:44;;;;;;;6.35;1.98;;;12.60;99.90;;;12.06;100.00;101246.53;5249888;22;20413;-73
2022/09/16 00:09:45;;;;;;;6.90;2.10;;;12.60;99.90;;;11.87;100.00;101217.59;5250283;22;20030;-74
2022/09/16 00:11:46;;;;;;;4.78;1.85;;;12.60;99.90;;;11.84;100.00;101217.91;5222385;22;20007;-73
2022/09/16 00:13:47;;;;;;;7.18;2.33;;;12.60;99.90;;;11.81;100.00;101215.56;5274565;22;20008;-73
2022/09/16 00:15:52;;;;;;;4.72;1.90;;;12.60;99.90;;;11.95;100.00;101231.72;5222717;22;20011;-73
2022/09/16 00:17:53;;;;;;;5.25;2.00;;;12.60;99.90;;;12.04;100.00;101254.59;5248230;22;20324;-74
2022/09/16 00:19:55;;;;;;;7.10;1.92;;;12.60;99.90;;;11.92;100.00;101225.91;5248688;22;20031;-74
2022/09/16 00:21:56;;;;;;;8.65;1.77;;;12.60;99.90;;;11.96;100.00;101235.19;5274652;22;20097;-74
2022/09/16 00:23:56;;;;;;;5.13;2.10;;;12.70;99.90;;;11.91;100.00;101217.16;5248524;22;20324;-73
2022/09/16 00:25:57;;;;;;;6.43;2.42;;;12.70;99.90;;;11.91;100.00;101218.97;5249623;22;20009;-73
2022/09/16 00:27:58;;;;;;;7.35;1.80;;;12.70;99.90;;;11.94;100.00;101218.66;5248809;22;20009;-74
2022/09/16 00:29:59;;;;;;;5.75;1.92;;;12.70;99.90;;;11.96;100.00;101228.09;5248975;22;20007;-73
2022/09/16 00:32:00;;;;;;;4.57;1.63;;;12.70;99.90;;;12.12;100.00;101249.41;5222747;22;20003;-73
2022/09/16 00:34:01;;;;;;;6.57;2.00;;;12.80;99.90;;;12.04;100.00;101225.50;5222307;22;20421;-74
2022/09/16 00:36:16;;;;;;;6.95;2.47;;;12.80;99.90;;;12.03;100.00;101237.09;5250007;22;20504;-73
2022/09/16 00:38:17;;;;;;;10.00;2.58;;;12.80;99.90;;;12.16;100.00;101245.44;5248234;22;20032;-73
2022/09/16 00:40:18;;;;;;;3.88;1.90;;;12.80;99.90;;;12.04;100.00;101238.72;5249885;22;20030;-73
2022/09/16 00:42:19;;;;;;;11.50;2.00;;;12.80;99.90;;;12.00;100.00;101213.59;5222128;22;20037;-73
2022/09/16 00:45:03;;;;;;;7.72;2.60;;;12.80;99.90;;;12.13;100.00;101258.97;5250166;22;20007;-73
2022/09/16 00:47:04;;;;;;;8.07;2.50;;;12.80;99.90;;;12.11;100.00;101236.31;5248904;22;20020;-74
2022/09/16 00:49:19;;;;;;;6.40;2.20;;;12.80;99.90;;;12.15;100.00;101249.09;5248552;22;19999;-74
2022/09/16 00:51:21;;;;;;;5.63;1.83;;;12.80;99.90;;;12.17;100.00;101257.69;5250312;22;20070;-73
2022/09/16 00:53:30;;;;;;;7.35;1.90;;;12.80;99.90;;;11.96;100.00;101230.75;5248224;22;20007;-74
2022/09/16 00:55:35;;;;;;;7.80;2.13;;;12.80;99.90;;;12.00;100.00;101240.03;5222691;22;20034;-73
2022/09/16 00:57:38;;;;;;;6.55;1.83;;;12.80;99.90;;;12.05;100.00;101258.91;5248349;22;20064;-74
2022/09/16 00:59:46;;;;;;;5.40;1.90;;;12.70;99.90;;;11.96;100.00;101243.97;5248328;22;20003;-74
2022/09/16 01:01:48;;;;;;;7.78;2.42;;;12.70;99.90;;;11.90;100.00;101238.44;5248394;22;20002;-74
2022/09/16 01:03:54;;;;;;;3.88;2.08;;;12.70;99.90;;;11.84;100.00;101239.88;5249823;22;20029;-74
2022/09/16 01:05:55;;;;;;;6.15;2.00;;;12.70;99.90;;;11.88;100.00;101246.53;5222847;22;20070;-74
2022/09/16 01:07:57;;;;;;;8.57;2.25;;;12.60;99.90;;;11.96;100.00;101266.91;5248078;22;20003;-73
2022/09/16 01:09:58;;;;;;;4.72;2.25;;;12.60;99.90;;;11.83;100.00;101247.97;5222840;22;20003;-73
2022/09/16 01:11:59;;;;;;;7.13;1.83;;;12.60;99.90;;;11.77;100.00;101244.09;5247988;22;20461;-74
2022/09/16 01:16:28;;;;;;;6.25;2.53;;;12.50;99.90;;;11.61;100.00;101236.84;5250233;22;20017;-73
2022/09/16 01:19:16;;;;;;;7.30;1.95;;;12.50;99.90;;;11.80;100.00;101270.25;5249858;22;19999;-73
2022/09/16 01:22:14;;;;;;;11.32;2.55;;;12.50;99.90;;;11.75;100.00;101267.22;5229118;22;20026;-73
2022/09/16 01:24:54;;;;;;;11.68;2.70;;;12.40;99.90;;;11.66;100.00;101252.25;5142052;22;20007;-73
2022/09/16 01:27:24;;;;;;;7.35;2.30;;;12.40;99.90;;;11.73;100.00;101266.56;5228112;22;20079;-73
2022/09/16 01:30:05;;;;;;;6.43;2.45;;;12.40;99.90;;;11.68;100.00;101269.59;5249501;22;20013;-74
2022/09/16 01:32:33;;;;;;;8.25;2.67;;;12.40;99.90;;;11.74;100.00;101264.75;5251412;22;20006;-74
2022/09/16 01:34:56;;;;;;;7.68;3.05;;;12.40;99.90;;;11.71;100.00;101259.78;5249683;22;20064;-73
2022/09/16 01:37:10;;;;;;;11.27;3.25;;;12.40;99.90;;;11.70;100.00;101258.94;5223754;22;20011;-73
2022/09/16 01:40:20;;;;;;;8.00;3.58;;;12.40;99.90;;;11.47;100.00;101228.59;5272675;22;20038;-73
2022/09/16 01:43:00;;;;;;;7.28;3.42;;;12.40;99.90;;;11.64;100.00;101262.97;5223286;22;20494;-74
2022/09/16 01:45:32;;;;;;;5.53;2.50;;;12.30;99.90;;;11.60;100.00;101258.97;5249618;22;20014;-73
2022/09/16 01:48:18;;;;;;;7.28;2.47;;;12.30;99.90;;;11.61;100.00;101263.28;5277469;22;20006;-74
2022/09/16 01:50:39;;;;;;;7.78;3.63;;;12.30;99.90;;;11.45;100.00;101233.19;5228051;22;20010;-73
2022/09/16 01:52:57;;;;;;;7.50;3.17;;;12.30;99.90;;;11.43;100.00;101227.25;5225113;22;20097;-73
2022/09/16 01:55:01;;;;;;;5.95;2.67;;;12.20;99.90;;;11.44;100.00;101231.56;5277179;22;20077;-74
2022/09/16 01:57:09;;;;;;;7.53;3.28;;;12.20;99.90;;;11.55;100.00;101249.81;5249849;22;20052;-74
2022/09/16 01:59:24;;;;;;;8.98;2.78;;;12.20;99.90;;;11.40;100.00;101230.19;5249465;22;20395;-74
2022/09/16 02:01:40;;;;;;;6.38;2.97;;;12.20;99.90;;;11.51;100.00;101259.84;5224713;22;20010;-73
2022/09/16 02:03:48;;;;;;;5.40;2.45;;;12.20;99.90;;;11.44;100.00;101239.47;5249671;22;20007;-74
2022/09/16 02:06:02;;;;;;;11.88;2.75;;;12.10;99.90;;;11.48;100.00;101257.50;5249855;22;20003;-74
2022/09/16 02:08:16;;;;;;;10.88;3.22;;;12.10;99.90;;;11.45;100.00;101254.34;5250304;22;20003;-73
2022/09/16 02:10:33;;;;;;;6.63;2.40;;;12.10;99.90;;;11.23;100.00;101223.06;5224469;22;20003;-74
2022/09/16 02:12:40;;;;;;;5.18;2.97;;;12.10;99.90;;;11.36;100.00;101242.84;5250712;22;20062;-74
2022/09/16 02:14:46;;;;;;;8.18;3.50;;;12.10;99.90;;;11.44;100.00;101255.34;5249474;22;20002;-74
2022/09/16 02:17:01;;;;;;;8.07;3.50;;;12.20;99.90;;;11.39;100.00;101247.00;5277092;22;20003;-73
2022/09/16 02:19:10;;;;;;;8.65;3.92;;;12.20;99.90;;;11.48;100.00;101259.31;5224802;22;20405;-74
2022/09/16 02:21:17;;;;;;;10.07;3.10;;;12.20;99.90;;;11.35;100.00;101238.53;5277003;22;20003;-73
2022/09/16 02:38:30;;;;;;;;;;;;;;;;;;;;;
2022/09/16 04:14:49;;;;;;;;;;;;;;;;;;;;;
2022/09/16 06:34:07;;;;;;;10.23;2.55;;;13.00;99.90;;;12.25;100.00;101325.69;5098615;22;1402844;-75
2022/09/16 06:36:15;;;;;;;7.13;1.88;;;13.00;99.90;;;12.35;100.00;101330.88;5153674;23;20372;-75
2022/09/16 06:38:16;;;;;;;9.38;2.72;;;13.10;99.90;;;12.33;100.00;101322.28;5153380;23;20008;-75
2022/09/16 06:40:16;;;;;;;7.07;2.40;;;13.10;99.90;;;12.39;100.00;101326.97;5154864;23;20000;-75
2022/09/16 06:42:17;;;;;;;6.55;2.08;;;13.20;99.90;;;12.53;100.00;101337.81;5128151;23;20001;-75
2022/09/16 06:44:18;;;;;;;9.02;2.30;;;13.20;99.90;;;12.49;100.00;101331.16;5155012;23;20015;-75
2022/09/16 06:46:26;;;;;;;7.65;1.92;;;13.30;99.90;;;12.60;100.00;101330.09;5155550;23;20040;-75
2022/09/16 06:48:27;;;;;;;10.73;2.20;;;13.40;99.90;;;12.76;100.00;101332.84;5153115;23;20011;-75
2022/09/16 06:50:28;;;;;;;5.70;1.70;;;13.50;99.90;;;12.84;100.00;101324.97;5153161;23;20004;-75
2022/09/16 06:52:30;;;;;;;7.97;2.55;;;13.60;99.90;;;12.88;100.00;101309.59;5154956;23;20012;-75
2022/09/16 06:54:31;;;;;;;6.60;1.90;;;13.70;99.90;;;12.99;100.00;101330.53;5153363;23;20004;-75
2022/09/16 06:56:34;;;;;;;10.90;2.08;;;13.70;99.90;;;12.99;100.00;101322.56;5154486;23;20004;-75
2022/09/16 06:58:38;;;;;;;9.90;2.97;;;13.80;99.90;;;13.05;100.00;101343.13;5153295;23;20015;-75
2022/09/16 07:00:41;;;;;;;9.10;2.35;;;13.80;99.90;;;13.11;100.00;101326.66;5154836;23;20028;-75
2022/09/16 07:02:42;;;;;;;6.55;1.52;;;13.90;99.90;;;13.32;100.00;101338.47;5154789;23;20028;-74
2022/09/16 07:04:42;;;;;;;4.53;1.67;;;14.00;99.90;;;13.25;100.00;101321.56;5154812;23;20384;-75
2022/09/16 07:06:44;;;;;;;5.47;1.52;;;14.10;99.90;;;13.49;100.00;101343.84;5153448;23;20007;-75
2022/09/16 07:08:46;;;;;;;8.70;2.30;;;14.20;99.90;;;13.63;100.00;101351.19;5154798;23;20004;-75
2022/09/16 07:10:59;;;;;;;7.63;1.95;;;14.30;99.90;;;13.77;100.00;101362.00;5152907;23;20008;-75
2022/09/16 07:13:00;;;;;;;6.35;1.80;;;14.40;99.90;;;13.74;100.00;101338.47;5154791;23;20004;-75
2022/09/16 07:15:01;;;;;;;5.45;1.77;;;14.50;99.90;;;13.81;100.00;101342.13;5154927;23;20055;-75
2022/09/16 07:17:02;;;;;;;7.65;1.92;;;14.60;99.90;;;13.92;100.00;101343.63;5154995;23;20005;-75
2022/09/16 07:19:04;;;;;;;6.28;2.15;;;14.60;99.90;;;14.00;100.00;101335.72;5154623;23;20040;-75
2022/09/16 07:21:16;;;;;;;7.38;2.35;;;14.70;99.90;;;14.10;100.00;101346.16;5154912;23;20066;-75
2022/09/16 07:23:17;;;;;;;8.05;2.30;;;14.90;99.90;;;14.30;100.00;101361.63;5154710;23;20004;-75
2022/09/16 07:25:18;;;;;;;7.35;1.75;;;14.90;99.90;;;14.31;100.00;101343.84;5152671;23;20440;-75
2022/09/16 07:27:19;;;;;;;5.88;1.58;;;15.10;99.90;;;14.49;100.00;101349.84;5153040;23;20082;-75
2022/09/16 07:29:20;;;;;;;6.68;1.67;;;15.20;99.90;;;14.70;100.00;101362.63;5152726;23;20012;-75
2022/09/16 07:31:26;;;;;;;9.60;1.85;;;15.30;99.90;;;14.51;100.00;101334.59;5147563;23;20091;-75
2022/09/16 07:33:28;;;;;;;4.63;1.40;;;15.30;99.90;;;14.61;100.00;101347.69;5148967;23;20012;-75
2022/09/16 07:35:29;;;;;;;7.25;1.63;;;15.40;99.90;;;14.72;100.00;101358.81;5122691;23;20009;-75
2022/09/16 07:37:30;;;;;;;8.15;2.40;;;15.40;99.90;;;14.60;100.00;101343.38;5122435;23;20105;-75
2022/09/16 07:39:30;;;;;;;5.25;1.77;;;15.40;99.90;;;14.64;100.00;101361.47;5149237;23;20005;-75
2022/09/16 07:41:37;;;;;;;3.97;1.60;;;15.40;99.90;;;14.71;100.00;101369.59;5147183;23;20007;-76
2022/09/16 07:43:40;;;;;;;4.78;1.58;;;15.40;99.90;;;14.57;100.00;101367.63;5123219;23;20005;-76
2022/09/16 07:45:41;;;;;;;4.25;1.83;;;15.40;99.90;;;14.74;100.00;101382.53;5147485;23;20422;-76
2022/09/16 07:47:42;;;;;;;5.78;1.40;;;15.40;99.90;;;14.83;100.00;101369.09;5149110;23;20033;-75
2022/09/16 07:49:43;;;;;;;7.35;1.92;;;15.50;99.90;;;14.91;99.93;101373.53;5147595;23;20009;-75
2022/09/16 07:51:44;;;;;;;5.10;1.50;;;15.70;99.90;;;15.21;98.47;101369.31;5148885;23;20299;-75
2022/09/16 07:53:47;;;;;;;5.22;1.50;;;15.80;99.90;;;15.52;97.54;101383.53;5148988;23;20031;-75
2022/09/16 07:55:47;;;;;;;4.28;1.80;;;16.00;99.90;;;15.67;95.70;101375.66;5147024;23;20040;-75
2022/09/16 07:57:48;;;;;;;6.15;1.80;;;16.20;99.90;;;15.76;95.13;101364.00;5149007;23;20507;-75
2022/09/16 07:59:50;;;;;;;7.25;2.05;;;16.40;99.90;;;15.80;93.68;101370.63;5148786;23;20440;-75
2022/09/16 08:01:51;;;;;;;4.25;1.50;;;16.50;99.90;;;15.83;94.43;101367.63;5147043;23;20001;-75
2022/09/16 08:03:56;;;;;;;7.35;1.65;;;16.50;99.90;;;15.78;94.32;101372.59;5147429;23;20009;-75
2022/09/16 08:06:27;;;;;;;3.38;1.48;;;16.50;99.90;;;15.74;94.54;101376.66;5147546;23;20068;-75
2022/09/16 08:08:30;;;;;;;3.90;1.17;;;16.40;99.90;;;15.58;95.45;101380.19;5146319;23;20013;-75
2022/09/16 08:10:31;;;;;;;4.55;1.60;;;16.30;99.90;;;15.46;96.58;101392.19;5146879;23;20013;-75
2022/09/16 08:12:34;;;;;;;7.00;1.58;;;16.20;99.90;;;15.21;97.79;101378.13;5148762;23;20498;-75
2022/09/16 08:14:35;;;;;;;3.17;1.00;;;16.10;99.90;;;15.14;98.31;101381.66;5147217;23;20056;-75
2022/09/16 08:16:36;;;;;;;4.35;1.88;;;16.00;99.90;;;15.02;98.91;101386.50;5149022;23;20004;-75
2022/09/16 08:18:38;;;;;;;8.02;1.98;;;15.90;99.90;;;14.89;99.08;101399.47;5147175;23;20036;-75
2022/09/16 08:20:39;;;;;;;7.63;1.52;;;15.80;99.90;;;14.84;99.28;101388.50;5172396;23;20004;-75
2022/09/16 08:22:40;;;;;;;5.85;1.55;;;15.70;99.90;;;14.87;99.70;101388.19;5148850;23;20032;-75
2022/09/16 08:24:41;;;;;;;4.82;1.42;;;15.70;99.90;;;14.93;100.00;101398.94;5122307;23;20005;-75
2022/09/16 08:26:42;;;;;;;6.15;1.55;;;15.70;99.90;;;14.87;99.65;101388.19;5146765;23;20389;-75
2022/09/16 08:28:44;;;;;;;4.20;1.58;;;15.70;99.90;;;14.70;99.67;101376.72;5147317;23;20318;-75
2022/09/16 08:30:46;;;;;;;7.70;1.85;;;15.60;99.90;;;14.78;99.84;101400.63;5122107;23;20005;-75
2022/09/16 08:32:47;;;;;;;7.05;1.92;;;15.60;99.90;;;14.77;100.00;101408.75;5147212;23;20358;-75
2022/09/16 08:34:48;;;;;;;3.00;1.20;;;15.60;99.90;;;14.72;100.00;101385.38;5147181;23;20011;-75
2022/09/16 08:36:49;;;;;;;4.75;1.60;;;15.60;99.90;;;14.82;100.00;101401.94;5147703;23;20012;-75
2022/09/16 08:38:54;;;;;;;5.15;2.35;;;15.60;99.90;;;14.85;100.00;101395.47;5146928;23;20445;-75
2022/09/16 08:41:45;;;;;;;5.28;1.40;;;15.60;99.90;;;15.07;100.00;101416.03;5146529;23;20001;-75
2022/09/16 08:44:08;;;;;;;7.97;1.42;;;15.70;99.90;;;15.10;99.48;101421.00;5079227;23;20013;-75
2022/09/16 08:46:21;;;;;;;5.75;1.13;;;15.80;99.90;;;15.00;97.11;101398.25;5146918;23;20016;-75
2022/09/16 08:48:58;;;;;;;8.00;1.60;;;15.90;99.90;;;15.19;95.29;101420.00;5147488;23;20001;-75
2022/09/16 08:51:01;;;;;;;4.30;1.38;;;15.90;99.90;;;15.08;93.96;101396.44;5147108;23;20064;-75
2022/09/16 08:53:09;;;;;;;9.43;1.77;;;15.90;99.90;;;15.21;92.46;101403.88;5147196;23;20010;-75
2022/09/16 08:55:30;;;;;;;3.40;1.42;;;16.00;99.90;;;15.24;90.48;101401.72;5122474;23;20457;-75
2022/09/16 08:57:38;;;;;;;4.30;1.25;;;16.00;99.90;;;15.35;87.93;101403.19;5123415;23;20043;-75
2022/09/16 08:59:47;;;;;;;4.05;1.05;;;16.10;99.90;;;15.45;87.87;101412.63;5148545;23;20011;-75
2022/09/16 09:02:00;;;;;;;3.25;1.05;;;16.10;99.90;;;15.49;85.52;101406.00;5146929;23;20080;-75
2022/09/16 09:04:02;;;;;;;8.35;1.73;;;16.20;99.90;;;15.47;84.05;101394.69;5148352;23;20012;-75
2022/09/16 09:06:49;;;;;;;3.03;0.68;;;16.30;99.90;;;15.57;77.18;101402.47;5146940;23;20421;-75
2022/09/16 09:09:36;;;;;;;3.40;1.23;;;16.30;99.90;;;15.70;76.16;101429.34;5148303;23;20011;-75
2022/09/16 09:11:49;;;;;;;3.88;0.90;;;16.40;99.90;;;15.80;75.19;101423.84;5146576;23;20013;-75
2022/09/16 09:14:11;;;;;;;2.58;0.80;;;16.40;99.90;;;15.67;73.01;101402.25;5148276;23;20005;-75
2022/09/16 09:16:48;;;;;;;2.45;0.50;;;16.50;99.90;;;15.80;73.86;101397.22;5148390;23;20004;-75
2022/09/16 09:19:55;;;;;;;2.58;0.70;;;16.60;99.90;;;16.00;70.81;101425.06;5126618;23;20332;-75
2022/09/16 09:22:13;;;;;;;3.08;0.65;;;16.70;99.90;;;15.91;66.92;101405.66;5148551;23;20039;-75
2022/09/16 09:24:53;;;;;;;3.35;0.80;;;16.80;99.90;;;16.13;66.74;101433.28;5146165;23;20515;-75
2022/09/16 09:27:26;;;;;;;2.22;0.40;;;16.80;99.90;;;16.22;67.32;101431.44;5147729;23;20008;-75
2022/09/16 09:29:56;;;;;;;2.30;0.95;;;16.90;99.90;;;16.36;64.91;101439.47;5146707;23;20008;-75
2022/09/16 09:32:18;;;;;;;1.75;0.47;;;17.00;99.90;;;16.38;64.81;101421.47;5146295;23;20013;-75
2022/09/16 09:34:28;;;;;;;2.10;0.52;;;17.10;99.90;;;16.53;65.82;101441.03;5147986;23;20318;-75
2022/09/16 09:36:40;;;;;;;2.50;0.60;;;17.20;99.90;;;16.53;64.05;101443.69;5147995;23;20005;-75
2022/09/16 09:39:28;;;;;;;1.35;0.50;;;17.20;99.40;;;16.54;62.03;101434.72;5147930;23;20037;-75
2022/09/16 09:41:37;;;;;;;1.70;0.38;;;17.30;98.80;;;16.51;60.18;101424.41;5146474;23;20007;-75
2022/09/16 09:43:51;;;;;;;3.15;0.60;;;17.30;97.90;;;16.73;59.08;101433.41;5148261;23;20008;-75
2022/09/16 09:46:25;;;;;;;0.88;0.30;;;17.50;97.50;;;16.56;58.26;101429.22;5148126;23;20005;-75
2022/09/16 09:48:36;;;;;;;2.28;0.45;;;17.50;96.50;;;16.44;58.12;101442.09;5146394;23;20071;-75
2022/09/16 09:50:48;;;;;;;1.92;0.77;;;17.30;96.30;;;16.36;58.45;101431.50;5121726;23;20004;-75
2022/09/16 09:53:11;;;;;;;4.00;0.47;;;17.30;96.80;;;16.37;60.12;101437.63;5171374;23;20412;-75
2022/09/16 09:55:23;;;;;;;3.47;0.57;;;17.20;97.40;;;16.67;58.99;101454.59;5124659;23;20013;-75
2022/09/16 09:57:38;;;;;;;2.38;0.80;;;17.30;96.90;;;17.01;57.95;101454.97;5146610;23;20004;-75
2022/09/16 09:59:47;;;;;;;4.10;0.65;;;17.60;96.70;;;17.37;57.52;101449.78;5146837;23;20402;-75
2022/09/16 10:01:55;;;;;;;3.45;0.70;;;17.90;96.30;;;17.49;55.37;101443.00;5147985;23;20001;-75
2022/09/16 10:03:56;;;;;;;1.80;0.40;;;18.20;95.20;;;17.39;55.95;101424.59;5147924;23;20394;-75
2022/09/16 10:05:58;;;;;;;1.38;0.73;;;18.30;95.30;;;17.66;56.34;101456.00;5147843;23;20001;-75
2022/09/16 10:08:12;;;;;;;0.80;0.40;;;18.40;95.40;;;17.52;55.89;101448.78;5148254;23;20039;-75
2022/09/16 10:10:23;;;;;;;1.73;0.32;;;18.40;95.10;;;17.58;55.31;101460.59;5146413;23;20313;-75
2022/09/16 10:12:33;;;;;;;1.52;0.60;;;18.40;94.70;;;17.61;54.94;101476.25;5147990;23;20000;-75
2022/09/16 10:14:37;;;;;;;0.75;0.20;;;18.40;94.50;;;17.44;53.56;101456.88;5146645;23;20001;-75
2022/09/16 10:16:52;;;;;;;1.58;0.60;;;18.30;93.60;;;17.27;53.34;101458.06;5148203;23;20009;-75
2022/09/16 10:19:14;;;;;;;2.90;0.40;;;18.30;93.10;;;17.28;54.08;101454.38;5147657;23;20031;-75
2022/09/16 10:21:16;;;;;;;2.72;0.35;;;18.20;93.60;;;17.37;54.60;101469.28;5147963;23;20059;-75
2022/09/16 10:23:24;;;;;;;1.95;0.40;;;18.20;93.80;;;17.38;54.10;101451.47;5147875;23;20005;-75
2022/09/16 10:25:25;;;;;;;1.05;0.30;;;18.20;93.60;;;17.47;54.05;101447.69;5121229;23;20009;-76
2022/09/16 10:27:35;;;;;;;1.45;0.50;;;18.30;93.70;;;17.48;53.03;101460.00;5146115;23;20013;-76
2022/09/16 10:29:36;;;;;;;1.02;0.30;;;18.40;92.90;;;17.46;54.23;101451.38;5146240;23;20000;-75
2022/09/16 10:31:40;;;;;;;1.48;0.40;;;18.40;93.30;;;17.46;53.17;101446.03;5146257;23;20318;-75
2022/09/16 10:33:43;;;;;;;;;;;18.40;92.90;;;17.65;52.60;101443.66;5146771;23;20012;-75
2022/09/16 10:36:05;;;;;;;2.25;0.32;;;18.60;92.50;;;18.00;52.91;101436.72;5121434;23;20292;-75
2022/09/16 10:38:22;;;;;;;4.20;0.43;;;18.70;92.90;;;18.41;52.72;101455.66;5146222;23;20008;-75
2022/09/16 10:40:25;;;;;;;2.65;0.45;;;19.00;92.90;;;18.30;52.31;101458.84;5147819;23;20001;-75
2022/09/16 10:42:28;;;;;;;3.73;0.50;;;19.10;92.50;;;17.94;53.35;101439.31;5146483;23;20457;-75
2022/09/16 10:44:32;;;;;;;0.88;0.20;;;19.00;92.70;;;18.06;53.42;101451.16;5146284;23;20263;-75
2022/09/16 10:46:33;;;;;;;3.00;0.30;;;19.00;92.90;;;18.19;53.87;101441.44;5146548;23;20005;-75
2022/09/16 10:48:35;;;;;;;2.75;0.40;;;19.00;92.90;;;18.24;52.53;101455.09;5147746;23;20501;-75
2022/09/16 10:50:36;;;;;;;2.05;0.38;;;19.10;92.40;;;18.40;51.76;101467.34;5121354;23;20009;-75
2022/09/16 10:52:44;;;;;;;1.15;0.32;;;19.20;92.00;;;18.40;51.33;101456.66;5146991;23;20036;-75
2022/09/16 10:54:45;;;;;;;1.55;0.40;;;19.40;91.70;;;18.59;51.66;101455.25;5171712;23;20526;-75
2022/09/16 10:56:49;;;;;;;1.67;0.70;;;19.50;92.10;;;18.65;51.13;101460.66;5145951;23;20024;-75
2022/09/16 10:59:08;;;;;;;1.02;0.30;;;19.60;91.60;;;18.47;50.84;101452.22;5121557;23;20009;-75
2022/09/16 11:01:12;;;;;;;4.78;0.52;;;19.60;91.10;;;18.36;52.32;101473.28;5147848;23;20446;-75
2022/09/16 11:03:37;;;;;;;1.95;0.40;;;19.40;91.70;;;18.00;52.74;101481.28;5147728;23;20004;-75
2022/09/16 11:06:22;;;;;;;1.15;0.40;;;19.00;91.80;;;17.75;53.23;101480.75;5148829;23;20433;-75
2022/09/16 11:09:03;;;;;;;1.90;0.40;;;18.80;92.00;;;17.99;52.64;101468.94;5048879;23;20006;-75
2022/09/16 11:11:19;;;;;;;1.52;0.65;;;18.70;92.20;;;18.25;52.67;101470.06;5138601;23;20004;-75
2022/09/16 11:13:56;;;;;;;1.15;0.30;;;18.90;92.50;;;18.44;53.28;101482.00;5149380;23;20001;-75
2022/09/16 11:16:16;;;;;;;2.22;0.30;;;19.10;92.60;;;18.52;52.71;101476.56;5149442;23;20007;-75
2022/09/16 11:18:53;;;;;;;3.13;0.55;;;19.30;92.40;;;18.94;51.16;101485.59;5149151;23;20015;-75
2022/09/16 11:21:12;;;;;;;1.77;0.52;;;19.60;91.40;;;18.74;51.42;101475.56;5149139;23;20084;-75
2022/09/16 11:24:00;;;;;;;3.72;0.50;;;19.70;91.30;;;18.68;50.68;101457.63;5149250;23;20009;-75
2022/09/16 11:26:32;;;;;;;4.35;0.40;;;19.70;91.40;;;18.82;51.46;101473.78;5124978;23;20453;-75
2022/09/16 11:29:05;;;;;;;1.90;0.55;;;19.60;91.30;;;19.00;50.79;101482.16;5147920;23;20451;-75
2022/09/16 11:31:49;;;;;;;1.63;0.47;;;19.80;91.80;;;19.18;48.75;101463.78;5147368;23;20009;-75
2022/09/16 11:34:11;;;;;;;1.90;0.57;;;20.00;89.50;;;19.72;49.06;101456.75;5148996;23;20039;-75
2022/09/16 11:36:54;;;;;;;1.70;0.68;;;20.30;90.40;;;19.52;48.75;101434.41;5149116;23;20087;-75
2022/09/16 11:39:10;;;;;;;1.60;0.38;;;20.60;90.00;;;19.61;48.64;101462.66;5147622;23;20009;-75
2022/09/16 11:41:34;;;;;;;2.10;0.40;;;20.60;89.00;;;19.40;49.09;101433.31;5148758;23;20005;-76
2022/09/16 11:43:59;;;;;;;3.47;0.63;;;20.60;89.70;;;19.61;48.53;101451.97;5147763;23;20004;-75
2022/09/16 11:46:19;;;;;;;1.73;0.40;;;20.60;88.60;;;19.49;48.01;101452.72;5148899;23;20066;-75
2022/09/16 11:48:34;;;;;;;2.38;0.45;;;20.60;88.00;;;19.55;47.81;101465.31;5147348;23;20020;-75
2022/09/16 11:51:01;;;;;;;3.78;0.57;;;20.50;87.90;;;19.44;48.55;101441.78;5149080;23;20011;-75
2022/09/16 11:53:32;;;;;;;2.45;0.38;;;20.50;89.00;;;19.45;48.53;101444.25;5136529;23;20012;-75
2022/09/16 11:56:02;;;;;;;1.98;0.47;;;20.50;88.80;;;19.17;49.22;101438.06;5147136;23;20009;-76
2022/09/16 11:58:32;;;;;;;0.70;0.30;;;20.40;88.90;;;19.07;49.95;101440.25;5148928;23;20004;-75
2022/09/16 12:00:38;;;;;;;4.28;0.50;;;20.30;89.50;;;19.37;50.45;101451.56;5125313;23;20005;-75
2022/09/16 12:02:38;;;;;;;1.40;0.40;;;20.20;90.20;;;19.27;50.75;101447.38;5147413;23;20385;-75
2022/09/16 12:05:15;;;;;;;1.90;0.40;;;20.30;90.50;;;19.31;50.06;101445.16;5148739;23;20020;-75
2022/09/16 12:07:41;;;;;;;2.45;0.60;;;20.30;90.10;;;19.39;49.76;101452.19;5147484;23;20007;-75
2022/09/16 12:10:07;;;;;;;2.28;0.90;;;20.30;89.40;;;19.67;50.69;101436.97;5147526;23;20008;-75
2022/09/16 12:12:19;;;;;;;2.45;0.40;;;20.40;90.60;;;19.48;49.86;101445.69;5147599;23;20011;-75
2022/09/16 12:14:30;;;;;;;2.60;0.50;;;20.40;90.10;;;19.13;51.04;101442.97;5147338;23;20091;-75
2022/09/16 12:16:41;;;;;;;1.92;0.43;;;20.20;90.10;;;18.96;52.45;101460.34;5147478;23;20004;-76
2022/09/16 12:18:55;;;;;;;2.10;0.70;;;20.00;90.90;;;18.76;52.79;101441.44;5147476;23;20032;-76
2022/09/16 12:21:36;;;;;;;2.03;0.40;;;19.80;91.30;;;18.83;52.22;101436.16;5172082;23;20348;-75
2022/09/16 12:23:47;;;;;;;2.67;0.57;;;19.70;91.10;;;19.33;52.28;101457.31;5168297;23;20083;-75
2022/09/16 12:26:17;;;;;;;1.42;0.40;;;19.90;91.40;;;19.78;52.27;101452.44;5146881;23;20001;-75
2022/09/16 12:28:54;;;;;;;2.22;0.40;;;20.20;91.60;;;19.75;49.29;101447.50;5147051;23;20036;-75
2022/09/16 12:31:17;;;;;;;1.63;0.55;;;20.50;89.60;;;19.21;49.61;101458.03;5147055;23;20009;-75
2022/09/16 12:33:26;;;;;;;2.20;0.52;;;20.50;88.70;;;19.04;50.73;101428.09;5148464;23;20146;-75
2022/09/16 12:35:43;;;;;;;2.13;0.63;;;20.30;90.00;;;19.21;50.22;101428.63;5147125;23;20012;-75
2022/09/16 12:37:50;;;;;;;2.13;0.60;;;20.30;90.10;;;19.33;50.39;101453.81;5147249;23;20009;-76
2022/09/16 12:39:51;;;;;;;3.33;1.05;;;20.30;90.00;;;19.06;50.25;101441.25;5147018;23;20000;-76
2022/09/16 12:42:04;;;;;;;1.75;0.88;;;20.20;89.30;;;19.07;50.22;101459.81;5146791;23;20005;-76
2022/09/16 12:44:34;;;;;;;2.35;0.75;;;20.20;89.30;;;19.20;51.47;101453.72;5171879;23;20004;-75
2022/09/16 12:47:08;;;;;;;1.38;0.40;;;20.20;90.00;;;19.43;50.92;101459.69;5172030;23;20004;-75
2022/09/16 12:49:40;;;;;;;2.30;0.57;;;20.20;90.40;;;19.46;50.48;101464.63;5148882;23;20004;-76
2022/09/16 12:51:55;;;;;;;1.85;0.50;;;20.30;90.50;;;18.62;51.90;101454.88;5148631;23;20021;-75
2022/09/16 12:54:16;;;;;;;2.17;0.47;;;19.90;90.20;;;18.57;52.30;101463.47;5148728;23;20004;-76
2022/09/16 12:56:32;;;;;;;1.38;0.43;;;19.70;90.50;;;18.99;53.61;101461.78;5146603;23;20340;-75
2022/09/16 12:58:44;;;;;;;2.60;0.77;;;19.70;92.00;;;19.06;52.89;101460.81;5146825;23;20005;-75
2022/09/16 13:01:08;;;;;;;2.50;0.43;;;19.80;91.50;;;19.33;52.00;101462.66;5146830;23;20004;-75
2022/09/16 13:03:19;;;;;;;2.45;0.50;;;20.00;91.10;;;19.31;51.13;101437.13;5148576;23;20435;-75
2022/09/16 13:05:37;;;;;;;2.95;0.50;;;20.30;90.50;;;19.27;50.53;101430.50;5148565;23;20023;-75
2022/09/16 13:07:40;;;;;;;3.13;0.47;;;20.40;90.20;;;19.25;51.46;101445.94;5146963;23;20341;-75
2022/09/16 13:09:42;;;;;;;3.25;0.45;;;20.40;90.30;;;19.69;51.62;101459.00;5148297;23;20080;-75
2022/09/16 13:11:54;;;;;;;2.08;0.40;;;20.40;90.70;;;19.75;51.34;101432.25;5146473;23;20009;-75
2022/09/16 13:13:57;;;;;;;4.10;1.05;;;20.50;90.80;;;19.59;51.58;101435.25;5146859;23;20004;-75
2022/09/16 13:16:01;;;;;;;1.20;0.38;;;20.60;90.70;;;19.52;51.16;101450.47;5148428;23;20341;-76
2022/09/16 13:18:25;;;;;;;3.05;0.60;;;20.40;90.40;;;19.65;51.92;101452.41;5121935;23;20362;-75
2022/09/16 13:20:34;;;;;;;1.13;0.57;;;20.40;90.90;;;19.44;51.65;101447.13;5146653;23;20079;-75
2022/09/16 13:22:56;;;;;;;3.83;0.75;;;20.40;90.50;;;19.16;51.16;101457.81;5146865;23;20240;-75